createdAt,value
2022-10-05T00:00:03.931Z,8.4
2022-10-05T00:05:10.049Z,8.3
2022-10-05T00:10:16.169Z,8.2
2022-10-05T00:15:22.286Z,8.4
2022-10-05T00:20:28.391Z,8.6
2022-10-05T00:25:33.518Z,8.7
2022-10-05T00:30:39.638Z,8.6
2022-10-05T00:35:45.737Z,8.7
2022-10-05T00:40:51.861Z,8.8
2022-10-05T00:45:57.966Z,8.7
2022-10-05T00:51:04.085Z,8.5
2022-10-05T00:56:10.204Z,8.4
2022-10-05T01:01:16.313Z,8.3
2022-10-05T01:06:22.425Z,8.1
2022-10-05T01:11:28.531Z,8
2022-10-05T01:16:34.650Z,8.2
2022-10-05T01:21:40.764Z,8.3
2022-10-05T01:26:46.873Z,8.3
2022-10-05T01:31:52.002Z,8
2022-10-05T01:36:58.109Z,7.9
2022-10-05T01:42:04.221Z,7.8
2022-10-05T01:47:10.348Z,7.9
2022-10-05T01:52:16.463Z,8.3
2022-10-05T01:57:22.561Z,8
2022-10-05T02:02:28.672Z,8
2022-10-05T02:07:34.820Z,8.1
2022-10-05T02:12:40.911Z,8
2022-10-05T02:17:47.040Z,8.2
2022-10-05T02:22:53.134Z,7.9
2022-10-05T02:27:59.255Z,7.9
2022-10-05T02:33:05.371Z,7.7
2022-10-05T02:38:10.506Z,7.6
2022-10-05T02:43:16.586Z,7.7
2022-10-05T02:48:22.742Z,7.9
2022-10-05T02:53:28.834Z,7.8
2022-10-05T02:58:34.943Z,7.8
2022-10-05T03:03:41.122Z,7.9
2022-10-05T03:08:46.230Z,7.9
2022-10-05T03:13:52.299Z,7.7
2022-10-05T03:18:58.418Z,7.5
2022-10-05T03:24:04.537Z,7.8
2022-10-05T03:29:10.639Z,7.7
2022-10-05T03:34:16.753Z,7.7
2022-10-05T03:39:22.872Z,7.7
2022-10-05T03:44:29.004Z,7.8
2022-10-05T03:49:35.089Z,8.1
2022-10-05T03:54:41.210Z,8.2
2022-10-05T03:59:47.326Z,8
2022-10-05T04:04:53.423Z,8.3
2022-10-05T04:09:59.546Z,8.5
2022-10-05T04:15:04.681Z,8.5
2022-10-05T04:20:10.790Z,8.6
2022-10-05T04:25:16.898Z,8.5
2022-10-05T04:30:23.019Z,8.5
2022-10-05T04:35:29.121Z,8.6
2022-10-05T04:40:35.226Z,8.6
2022-10-05T04:45:41.347Z,8.7
2022-10-05T04:50:47.472Z,8.6
2022-10-05T04:55:53.572Z,8.4
2022-10-05T05:00:59.691Z,8.3
2022-10-05T05:06:05.813Z,8.4
2022-10-05T05:11:11.904Z,8.3
2022-10-05T05:16:18.036Z,8.5
2022-10-05T05:21:23.187Z,8.4
2022-10-05T05:26:29.285Z,8.3
2022-10-05T05:31:35.392Z,8.2
2022-10-05T05:36:41.523Z,7.9
2022-10-05T05:41:47.672Z,8.1
2022-10-05T05:46:53.718Z,8.3
2022-10-05T05:51:59.856Z,8.4
2022-10-05T05:57:05.962Z,8.5
2022-10-05T06:02:12.176Z,8.8
2022-10-05T06:07:18.252Z,9.1
2022-10-05T06:12:24.307Z,9.4
2022-10-05T06:17:30.408Z,9.6
2022-10-05T06:22:36.502Z,9.7
2022-10-05T06:27:41.741Z,9.8
2022-10-05T06:32:47.798Z,10
2022-10-05T06:37:53.950Z,10.3
2022-10-05T06:43:00.004Z,10.5
2022-10-05T06:48:06.185Z,10.9
2022-10-05T06:53:12.232Z,11.1
2022-10-05T06:58:18.351Z,11.2
2022-10-05T07:03:24.476Z,11.4
2022-10-05T07:08:30.541Z,11.5
2022-10-05T07:13:36.654Z,11.5
2022-10-05T07:18:42.766Z,12.2
2022-10-05T07:23:48.971Z,12.4
2022-10-05T07:28:55.008Z,12.6
2022-10-05T07:34:00.126Z,12.7
2022-10-05T07:39:06.240Z,12.6
2022-10-05T07:44:12.358Z,12.7
2022-10-05T07:49:18.556Z,12.9
2022-10-05T07:54:24.591Z,13
2022-10-05T07:59:30.791Z,13.5
2022-10-05T08:04:36.837Z,14.3
2022-10-05T08:09:43.020Z,14.7
2022-10-05T08:14:49.009Z,15.2
2022-10-05T08:19:55.125Z,15.3
2022-10-05T08:25:01.219Z,15
2022-10-05T08:30:07.357Z,14.7
2022-10-05T08:35:13.437Z,15.8
2022-10-05T08:40:18.578Z,17.2
2022-10-05T08:45:24.684Z,17
2022-10-05T08:50:30.797Z,18.1
2022-10-05T08:55:36.921Z,18.2
2022-10-05T09:00:43.026Z,18
2022-10-05T09:05:49.135Z,18.7
2022-10-05T09:10:55.245Z,19.2
2022-10-05T09:16:01.357Z,19.4
2022-10-05T09:21:07.470Z,19.4
2022-10-05T09:26:13.674Z,18.9
2022-10-05T09:31:19.687Z,18.1
2022-10-05T09:36:25.806Z,17.6
2022-10-05T09:41:31.919Z,17.1
2022-10-05T09:46:37.116Z,18.6
2022-10-05T09:51:43.294Z,19
2022-10-05T09:56:49.276Z,19.5
2022-10-05T10:01:55.440Z,20.2
2022-10-05T10:07:01.511Z,20.3
2022-10-05T10:12:07.728Z,21.2
2022-10-05T10:17:13.744Z,19.9
2022-10-05T10:22:19.903Z,18.2
2022-10-05T10:27:25.997Z,18
2022-10-05T10:32:32.110Z,18.5
2022-10-05T10:37:38.275Z,18.2
2022-10-05T10:42:44.378Z,18
2022-10-05T10:47:50.403Z,18.3
2022-10-05T10:52:55.532Z,18.4
2022-10-05T10:58:01.789Z,18.8
2022-10-05T11:03:07.798Z,18.6
2022-10-05T11:08:13.863Z,18.9
2022-10-05T11:13:20.001Z,18.5
2022-10-05T11:18:26.091Z,18.7
2022-10-05T11:23:32.193Z,18.9
2022-10-05T11:28:38.338Z,19.2
2022-10-05T11:33:44.459Z,18.2
2022-10-05T11:38:50.532Z,18.3
2022-10-05T11:43:56.657Z,18.6
2022-10-05T11:49:02.746Z,18.2
2022-10-05T11:54:08.920Z,18.1
2022-10-05T11:59:14.057Z,18.3
2022-10-05T12:04:20.141Z,18.6
2022-10-05T12:09:26.212Z,18.6
2022-10-05T12:14:32.370Z,18.9
2022-10-05T12:19:38.434Z,19.2
2022-10-05T12:24:44.533Z,18.7
2022-10-05T12:29:50.657Z,18.7
2022-10-05T12:34:56.781Z,18.9
2022-10-05T12:40:02.877Z,18.5
2022-10-05T12:45:08.987Z,18.9
2022-10-05T12:50:15.095Z,19.4
2022-10-05T12:55:21.219Z,19.3
2022-10-05T13:00:27.316Z,19.1
2022-10-05T13:05:32.435Z,19.3
2022-10-05T13:10:38.546Z,20.5
2022-10-05T13:15:44.676Z,19.6
2022-10-05T13:20:50.789Z,19.2
2022-10-05T13:25:56.896Z,19
2022-10-05T13:31:03.001Z,18.9
2022-10-05T13:36:09.110Z,19
2022-10-05T13:41:15.215Z,19.1
2022-10-05T13:46:21.362Z,19.5
2022-10-05T13:51:27.446Z,19.4
2022-10-05T13:56:33.551Z,19.9
2022-10-05T14:01:39.703Z,20.3
2022-10-05T14:06:45.827Z,20.9
2022-10-05T14:11:50.917Z,20.6
2022-10-05T14:16:57.023Z,21.5
2022-10-05T14:22:03.137Z,22.6
2022-10-05T14:27:09.249Z,22.8
2022-10-05T14:37:21.465Z,22.3
2022-10-05T14:42:27.571Z,21.7
2022-10-05T14:47:33.697Z,21.8
2022-10-05T14:52:39.802Z,22.6
2022-10-05T14:57:45.904Z,22.9
2022-10-05T15:02:52.107Z,22.6
2022-10-05T15:07:58.141Z,22.9
2022-10-05T15:13:04.248Z,20.2
2022-10-05T15:18:09.398Z,18.6
2022-10-05T15:23:15.498Z,18.1
2022-10-05T15:28:21.594Z,17.9
2022-10-05T15:33:27.728Z,17.7
2022-10-05T15:38:33.805Z,17.8
2022-10-05T15:43:39.928Z,17.7
2022-10-05T15:48:46.045Z,17.5
2022-10-05T15:53:52.136Z,17.4
2022-10-05T15:58:58.261Z,17.3
2022-10-05T16:04:04.364Z,17.9
2022-10-05T16:09:10.486Z,17.1
2022-10-05T16:14:16.592Z,16.7
2022-10-05T16:19:22.705Z,16.5
2022-10-05T16:24:27.878Z,16.2
2022-10-05T16:29:33.933Z,15.8
2022-10-05T16:34:40.077Z,15.7
2022-10-05T16:39:46.167Z,16
2022-10-05T16:44:52.277Z,15.7
2022-10-05T16:49:58.416Z,15.6
2022-10-05T16:55:04.499Z,15.6
2022-10-05T17:00:10.618Z,15.4
2022-10-05T17:05:16.741Z,15
2022-10-05T17:10:22.836Z,14.8
2022-10-05T17:15:28.951Z,14.6
2022-10-05T17:20:35.073Z,14.6
2022-10-05T17:25:41.180Z,14.6
2022-10-05T17:30:46.294Z,14.2
2022-10-05T17:35:52.408Z,13.9
2022-10-05T17:40:58.523Z,14
2022-10-05T17:46:04.670Z,14.1
2022-10-05T17:51:10.785Z,14.4
2022-10-05T17:56:16.888Z,14.8
2022-10-05T18:01:22.998Z,14.6
2022-10-05T18:06:29.111Z,14.9
2022-10-05T18:11:35.234Z,14.8
2022-10-05T18:16:41.408Z,15.1
2022-10-05T18:21:47.463Z,15
2022-10-05T18:26:53.558Z,14.9
2022-10-05T18:31:59.663Z,15
2022-10-05T18:37:04.821Z,14.9
2022-10-05T18:42:10.931Z,14.6
2022-10-05T18:52:23.145Z,14.6
2022-10-05T18:57:29.238Z,14.2
2022-10-05T19:02:35.366Z,13.8
2022-10-05T19:07:41.477Z,13.9
2022-10-05T19:12:47.588Z,13.8
2022-10-05T19:17:53.684Z,14
2022-10-05T19:22:59.919Z,13.6
2022-10-05T19:28:05.951Z,13.3
2022-10-05T19:33:12.065Z,13.2
2022-10-05T19:38:18.227Z,13
2022-10-05T19:43:23.319Z,13.1
2022-10-05T19:48:29.425Z,12.5
2022-10-05T19:53:35.527Z,12
2022-10-05T19:58:41.637Z,11.5
2022-10-05T20:03:47.798Z,11.2
2022-10-05T20:08:53.908Z,11.1
2022-10-05T20:13:59.035Z,11.1
2022-10-05T20:19:05.153Z,11.5
2022-10-05T20:24:11.259Z,12
2022-10-05T20:29:17.376Z,12.4
2022-10-05T20:34:23.532Z,12.8
2022-10-05T20:39:29.607Z,13.1
2022-10-05T20:44:35.746Z,13.4
2022-10-05T20:49:41.822Z,13.3
2022-10-05T20:54:47.935Z,13.4
2022-10-05T20:59:54.100Z,13.3
2022-10-05T21:05:00.206Z,13.1
2022-10-05T21:10:06.437Z,12.8
2022-10-05T21:15:12.428Z,12.6
2022-10-05T21:20:17.570Z,12.9
2022-10-05T21:25:23.680Z,12.8
2022-10-05T21:30:29.784Z,12.4
2022-10-05T21:35:35.991Z,12.4
2022-10-05T21:40:42.009Z,12.5
2022-10-05T21:45:48.130Z,12.4
2022-10-05T21:50:54.232Z,12.5
2022-10-05T21:56:00.352Z,12.6
2022-10-05T22:01:06.461Z,12.7
2022-10-05T22:06:12.657Z,13
2022-10-05T22:11:18.720Z,13.1
2022-10-05T22:16:24.799Z,12.9
2022-10-05T22:21:30.890Z,13.2
2022-10-05T22:26:36.026Z,13.4
2022-10-05T22:31:42.143Z,13.5
2022-10-05T22:36:48.262Z,13.7
2022-10-05T22:41:54.362Z,13.5
2022-10-05T22:47:00.473Z,13
2022-10-05T22:52:06.596Z,12.9
2022-10-05T22:57:12.710Z,13
2022-10-05T23:02:18.845Z,13
2022-10-05T23:07:24.921Z,12.7
2022-10-05T23:12:31.058Z,12.6
2022-10-05T23:17:37.141Z,12.6
2022-10-05T23:22:43.246Z,12.7
2022-10-05T23:27:49.392Z,12.7
2022-10-05T23:32:54.510Z,12.5
2022-10-05T23:38:00.628Z,12.6
2022-10-05T23:43:06.727Z,13
2022-10-05T23:48:12.845Z,13.5
2022-10-05T23:53:18.951Z,13.5
2022-10-05T23:58:25.058Z,13.6
